Time;durP1;ratioP1;P1;durP2;ratioP2;P2;SDS_P1;SDS_P2;PMS_P1;PMS_P2;Temp;Humidity;BMP_temperature;BMP_pressure;BME280_temperature;BME280_humidity;BME280_pressure;Samples;Min_cycle;Max_cycle;Signal;HPM_P1;HPM_P2
2021/01/07 00:00:01;;;;;;;93.50;39.98;;;;;;;1.35;75.33;96073.33;1715990;82;21277;-55
2021/01/07 00:02:31;;;;;;;102.07;43.52;;;;;;;1.32;75.49;96062.41;1749736;81;21556;-55
2021/01/07 00:04:59;;;;;;;86.65;41.98;;;;;;;1.29;75.62;96050.57;1702236;81;21080;-55
2021/01/07 00:07:26;;;;;;;98.62;39.83;;;;;;;1.28;75.17;96034.41;1728932;83;21208;-53
2021/01/07 00:09:54;;;;;;;95.45;35.23;;;;;;;1.23;75.58;96026.55;1722883;82;21125;-53
2021/01/07 00:12:21;;;;;;;95.55;39.18;;;;;;;1.19;75.62;96030.95;1758281;81;21129;-54
2021/01/07 00:14:49;;;;;;;86.20;38.48;;;;;;;1.09;75.89;96033.06;1765830;81;21488;-54
2021/01/07 00:17:16;;;;;;;90.87;36.90;;;;;;;1.10;76.16;96028.35;1753534;81;21483;-55
2021/01/07 00:19:44;;;;;;;73.60;36.93;;;;;;;1.15;76.11;96020.92;1747504;81;21385;-53
2021/01/07 00:22:11;;;;;;;71.15;34.33;;;;;;;1.20;75.91;96006.22;1748501;81;21127;-53
2021/01/07 00:24:39;;;;;;;67.03;33.60;;;;;;;1.15;75.57;96012.83;1736915;81;21627;-53
2021/01/07 00:27:07;;;;;;;74.75;31.77;;;;;;;0.92;75.84;96015.05;1734546;81;21057;-54
2021/01/07 00:29:35;;;;;;;61.98;27.22;;;;;;;0.63;76.29;96019.63;1727471;81;21093;-56
2021/01/07 00:32:03;;;;;;;71.02;32.40;;;;;;;0.43;76.83;96021.70;1737819;81;21218;-54
2021/01/07 00:34:31;;;;;;;65.92;32.67;;;;;;;0.33;77.54;96029.34;1713313;82;21220;-54
2021/01/07 00:36:59;;;;;;;71.07;30.92;;;;;;;0.40;78.03;96040.97;1720687;83;21498;-53
2021/01/07 00:39:26;;;;;;;61.88;30.17;;;;;;;0.54;78.15;96040.41;1708567;83;22061;-53
2021/01/07 00:41:58;;;;;;;74.00;30.35;;;;;;;0.68;78.17;96041.16;1719437;83;21588;-53
2021/01/07 00:44:26;;;;;;;65.85;28.95;;;;;;;0.81;78.02;96044.87;1705835;83;21394;-54
2021/01/07 00:46:54;;;;;;;70.20;33.33;;;;;;;0.95;77.76;96038.37;1694680;82;21161;-54
2021/01/07 00:49:22;;;;;;;78.95;34.60;;;;;;;1.05;77.49;96033.25;1703903;83;21147;-54
2021/01/07 00:51:50;;;;;;;78.27;34.03;;;;;;;1.16;77.28;96027.70;1685168;83;21187;-54
2021/01/07 00:56:59;;;;;;;86.47;31.23;;;;;;;1.35;76.97;96053.30;1867038;76;23192;-54
2021/01/07 00:59:28;;;;;;;62.48;29.52;;;;;;;1.32;76.70;96054.28;1838057;77;21836;-55
2021/01/07 01:01:55;;;;;;;62.43;33.10;;;;;;;1.32;76.51;96060.67;1821970;77;21150;-54
2021/01/07 01:04:23;;;;;;;63.30;31.37;;;;;;;1.32;76.57;96059.84;1823481;78;21590;-54
2021/01/07 01:06:50;;;;;;;61.73;32.03;;;;;;;1.39;76.42;96061.23;1816267;78;21062;-54
2021/01/07 01:09:18;;;;;;;51.33;27.30;;;;;;;1.44;76.22;96050.36;1796923;78;21065;-54
2021/01/07 01:11:47;;;;;;;72.12;30.95;;;;;;;1.49;76.11;96053.55;1797873;78;21156;-54
2021/01/07 01:14:17;;;;;;;67.75;29.85;;;;;;;1.51;75.87;96049.19;1805403;78;21650;-54
2021/01/07 01:16:47;;;;;;;69.40;27.25;;;;;;;1.47;75.55;96034.89;1818655;78;21512;-54
2021/01/07 01:19:17;;;;;;;54.03;29.55;;;;;;;1.38;75.67;96037.84;1809519;78;21151;-54
2021/01/07 01:21:51;;;;;;;56.60;29.30;;;;;;;1.36;75.83;96036.63;1784104;80;21109;-53
2021/01/07 01:24:19;;;;;;;56.95;28.47;;;;;;;1.41;75.81;96044.92;1801789;79;21482;-53
2021/01/07 01:26:56;;;;;;;51.50;27.20;;;;;;;1.45;75.59;96032.41;1820603;77;23166;-53
2021/01/07 01:29:24;;;;;;;69.95;28.35;;;;;;;1.42;75.54;96047.05;1817119;78;21159;-53
2021/01/07 01:31:53;;;;;;;67.00;28.50;;;;;;;1.34;75.30;96040.98;1819236;77;21164;-55
2021/01/07 01:34:24;;;;;;;54.15;28.57;;;;;;;1.25;75.50;96029.85;1813366;78;21058;-54
2021/01/07 01:36:52;;;;;;;49.77;28.02;;;;;;;1.19;75.65;96027.58;1808354;78;21639;-54
2021/01/07 01:39:20;;;;;;;51.68;28.25;;;;;;;1.21;75.79;96021.95;1795608;78;22437;-54
2021/01/07 01:41:49;;;;;;;50.43;28.00;;;;;;;1.26;76.00;96021.30;1804677;78;21065;-53
2021/01/07 01:44:17;;;;;;;47.62;26.00;;;;;;;1.31;76.00;96018.55;1797857;78;21162;-53
2021/01/07 01:46:45;;;;;;;55.70;27.85;;;;;;;1.35;75.95;96013.25;1822299;78;21104;-53
2021/01/07 01:49:14;;;;;;;61.55;27.80;;;;;;;1.38;75.78;96016.11;1813945;78;21112;-54
2021/01/07 01:51:42;;;;;;;49.70;27.15;;;;;;;1.39;75.60;95999.89;1802458;78;22321;-53
2021/01/07 01:54:10;;;;;;;55.95;29.35;;;;;;;1.40;75.47;95993.43;1802884;78;21080;-53
2021/01/07 01:56:38;;;;;;;53.25;28.50;;;;;;;1.40;75.42;95974.72;1811720;78;21077;-53
2021/01/07 01:59:05;;;;;;;55.90;27.80;;;;;;;1.47;75.51;95982.48;1789483;78;21210;-53
2021/01/07 02:01:33;;;;;;;52.00;26.82;;;;;;;1.49;75.32;95982.42;1791523;78;21643;-54
2021/01/07 02:04:00;;;;;;;48.58;26.90;;;;;;;1.47;75.16;95977.37;1729184;83;21668;-53
2021/01/07 02:06:28;;;;;;;51.63;27.32;;;;;;;1.42;75.12;95979.30;1760680;81;21096;-53
2021/01/07 02:08:56;;;;;;;48.78;27.15;;;;;;;1.36;74.98;95979.56;1715988;82;21096;-55
2021/01/07 02:11:24;;;;;;;55.08;27.82;;;;;;;1.22;75.11;95974.61;1744765;80;21123;-55
2021/01/07 02:13:52;;;;;;;49.83;27.40;;;;;;;1.12;75.53;95978.46;1731368;81;21124;-55
2021/01/07 02:16:23;;;;;;;48.02;26.10;;;;;;;1.11;75.85;95971.68;1732094;81;21222;-55
2021/01/07 02:18:57;;;;;;;53.63;26.23;;;;;;;1.17;75.98;95969.30;1740508;81;21163;-55
2021/01/07 02:21:26;;;;;;;50.73;26.55;;;;;;;1.19;75.82;95975.20;1742471;82;21099;-54
2021/01/07 02:23:55;;;;;;;59.40;29.60;;;;;;;1.18;75.88;95975.63;1739290;82;21123;-54
2021/01/07 02:26:23;;;;;;;54.33;29.07;;;;;;;1.21;75.88;95970.38;1742500;81;21111;-54
2021/01/07 02:28:51;;;;;;;55.40;29.87;;;;;;;1.26;75.93;95964.62;1741584;82;27088;-54
2021/01/07 02:31:19;;;;;;;60.12;30.72;;;;;;;1.33;75.89;95966.45;1732021;81;21093;-54
2021/01/07 02:33:47;;;;;;;62.10;30.60;;;;;;;1.39;75.78;95972.59;1727975;81;21480;-54
2021/01/07 02:36:14;;;;;;;61.68;30.88;;;;;;;1.44;75.58;95972.39;1754897;80;21150;-55
2021/01/07 02:38:42;;;;;;;60.80;31.15;;;;;;;1.49;75.43;95960.69;1758284;81;21199;-55
2021/01/07 02:41:11;;;;;;;66.55;33.42;;;;;;;1.51;75.11;95960.98;1739087;81;21213;-55
2021/01/07 02:43:38;;;;;;;67.27;33.70;;;;;;;1.52;75.04;95956.72;1727489;81;21093;-53
2021/01/07 02:46:06;;;;;;;72.05;33.70;;;;;;;1.57;74.94;95964.55;1730605;81;21510;-54
2021/01/07 02:48:35;;;;;;;67.78;33.88;;;;;;;1.59;74.88;95954.25;1726595;81;22012;-53
2021/01/07 02:51:02;;;;;;;67.40;34.48;;;;;;;1.54;74.89;95949.34;1729784;82;21121;-54
2021/01/07 02:53:31;;;;;;;73.55;35.40;;;;;;;1.52;74.87;95947.77;1724777;82;22316;-54
2021/01/07 02:55:58;;;;;;;65.85;33.55;;;;;;;1.43;74.84;95952.83;1746301;80;21081;-54
2021/01/07 02:58:28;;;;;;;71.05;35.25;;;;;;;1.35;75.01;95945.94;1743152;80;21208;-55
2021/01/07 03:00:56;;;;;;;77.35;37.40;;;;;;;1.29;75.17;95938.11;1756085;80;21863;-54
2021/01/07 03:03:24;;;;;;;78.57;37.48;;;;;;;1.28;75.30;95938.56;1773407;80;21105;-54
2021/01/07 03:05:52;;;;;;;67.75;34.88;;;;;;;1.29;75.53;95938.11;1757921;80;21366;-54
2021/01/07 03:08:20;;;;;;;66.70;34.23;;;;;;;1.34;75.50;95943.02;1759032;80;21797;-54
2021/01/07 03:10:47;;;;;;;67.75;34.45;;;;;;;1.36;75.41;95951.45;1774023;80;21105;-54
2021/01/07 03:13:14;;;;;;;75.17;37.70;;;;;;;1.38;75.36;95947.09;1773311;80;21573;-54
2021/01/07 03:15:42;;;;;;;70.62;36.58;;;;;;;1.40;75.37;95945.31;1762196;81;21579;-54
2021/01/07 03:18:09;;;;;;;71.67;36.33;;;;;;;1.48;75.17;95938.13;1753533;81;21161;-53
2021/01/07 03:20:37;;;;;;;72.10;35.85;;;;;;;1.52;74.99;95931.97;1746010;81;21073;-53
2021/01/07 03:23:05;;;;;;;68.83;35.88;;;;;;;1.49;74.90;95928.27;1756101;81;21140;-53
2021/01/07 03:25:34;;;;;;;68.83;35.13;;;;;;;1.45;74.94;95924.20;1751819;81;21077;-53
2021/01/07 03:28:01;;;;;;;;;;;;;;;1.44;75.08;95919.98;1757442;81;21180;-53
2021/01/07 03:30:29;;;;;;;64.00;33.63;;;;;;;1.47;75.05;95926.23;1735396;81;21403;-54
2021/01/07 03:32:57;;;;;;;63.65;32.98;;;;;;;1.47;74.99;95927.06;1751345;81;21073;-53
2021/01/07 03:35:25;;;;;;;57.60;31.95;;;;;;;1.51;75.03;95940.53;1758115;81;21185;-53
2021/01/07 03:37:52;;;;;;;55.88;31.62;;;;;;;1.55;74.82;95932.30;1763951;81;21160;-53
2021/01/07 03:40:20;;;;;;;55.70;31.55;;;;;;;1.58;74.73;95927.02;1763117;81;21062;-54
2021/01/07 03:42:47;;;;;;;58.45;33.38;;;;;;;1.59;74.65;95915.90;1752543;81;21962;-53
2021/01/07 03:45:15;;;;;;;59.95;35.25;;;;;;;1.60;74.40;95912.00;1738415;81;21145;-54
2021/01/07 03:47:42;;;;;;;60.33;33.30;;;;;;;1.58;74.36;95921.90;1749588;81;21588;-54
2021/01/07 03:50:11;;;;;;;58.77;33.77;;;;;;;1.59;74.47;95920.55;1741938;81;21093;-54
2021/01/07 03:52:39;;;;;;;58.60;33.35;;;;;;;1.67;74.42;95920.67;1736713;81;21489;-54
2021/01/07 03:55:09;;;;;;;54.80;31.05;;;;;;;1.73;74.25;95910.16;1757293;81;21492;-54
2021/01/07 03:57:36;;;;;;;55.78;33.08;;;;;;;1.75;73.94;95910.92;1735928;81;21543;-54
2021/01/07 04:00:06;;;;;;;53.87;32.05;;;;;;;1.71;73.87;95906.83;1740426;81;21280;-54
2021/01/07 04:02:33;;;;;;;57.23;32.58;;;;;;;1.71;73.97;95907.67;1754110;81;21136;-54
2021/01/07 04:05:02;;;;;;;55.10;31.70;;;;;;;1.70;73.90;95909.02;1755913;80;21607;-54
2021/01/07 04:07:30;;;;;;;55.63;32.17;;;;;;;1.69;73.88;95908.17;1753080;81;21096;-54
2021/01/07 04:09:57;;;;;;;50.85;30.88;;;;;;;1.73;73.91;95900.75;1733211;81;21109;-53
2021/01/07 04:12:25;;;;;;;48.98;29.87;;;;;;;1.78;73.93;95904.38;1762444;80;21580;-54
2021/01/07 04:14:54;;;;;;;52.55;31.45;;;;;;;1.79;73.91;95906.02;1763180;81;21180;-54
2021/01/07 04:17:22;;;;;;;52.78;31.35;;;;;;;1.75;73.95;95900.23;1759856;81;21156;-53
2021/01/07 04:19:49;;;;;;;52.50;30.20;;;;;;;1.78;74.01;95901.83;1759369;81;21264;-54
2021/01/07 04:22:17;;;;;;;47.27;29.82;;;;;;;1.81;73.99;95900.41;1742808;81;21085;-53
2021/01/07 04:24:45;;;;;;;52.58;29.40;;;;;;;1.83;73.86;95899.41;1741994;81;21541;-53
2021/01/07 04:27:13;;;;;;;45.50;27.07;;;;;;;1.85;73.56;95901.91;1734791;81;21164;-54
2021/01/07 04:29:40;;;;;;;44.27;27.27;;;;;;;1.79;73.50;95896.64;1758303;81;21069;-54
2021/01/07 04:32:08;;;;;;;46.00;25.92;;;;;;;1.69;73.79;95890.27;1733794;81;21386;-55
2021/01/07 04:34:36;;;;;;;45.70;28.05;;;;;;;1.64;73.90;95887.10;1767820;80;21126;-55
2021/01/07 04:37:03;;;;;;;42.40;24.80;;;;;;;1.60;74.20;95886.42;1749838;81;21129;-53
2021/01/07 04:39:31;;;;;;;42.40;25.82;;;;;;;1.61;74.14;95888.09;1748044;81;21861;-53
2021/01/07 04:41:58;;;;;;;44.65;26.10;;;;;;;1.58;74.08;95893.77;1750597;81;21173;-54
2021/01/07 04:44:26;;;;;;;36.05;22.65;;;;;;;1.54;74.19;95893.09;1727541;81;21481;-54
2021/01/07 04:46:53;;;;;;;36.42;24.05;;;;;;;1.52;74.27;95900.01;1735909;81;21211;-54
2021/01/07 04:49:21;;;;;;;32.58;19.15;;;;;;;1.46;74.57;95898.58;1748188;81;21062;-53
2021/01/07 04:51:49;;;;;;;31.60;21.07;;;;;;;1.44;74.74;95896.97;1745853;82;21104;-53
2021/01/07 04:54:17;;;;;;;38.25;23.45;;;;;;;1.40;75.13;95890.36;1754549;81;21081;-54
2021/01/07 04:56:45;;;;;;;30.17;18.33;;;;;;;1.29;75.37;95889.09;1734897;80;21211;-55
2021/01/07 04:59:13;;;;;;;35.55;20.30;;;;;;;1.17;75.94;95883.69;1729559;81;21426;-55
2021/01/07 05:01:41;;;;;;;31.15;19.80;;;;;;;0.96;76.72;95881.66;1754187;81;21068;-55
2021/01/07 05:04:11;;;;;;;29.98;19.30;;;;;;;0.82;77.21;95887.34;1735071;81;21084;-54
2021/01/07 05:06:39;;;;;;;29.60;18.50;;;;;;;0.73;77.80;95891.95;1732111;81;21096;-54
2021/01/07 05:09:07;;;;;;;29.37;18.82;;;;;;;0.66;78.41;95889.30;1745125;81;21652;-54
2021/01/07 05:11:35;;;;;;;23.45;16.10;;;;;;;0.57;79.21;95883.75;1753207;81;26414;-55
2021/01/07 05:14:07;;;;;;;25.25;16.30;;;;;;;0.57;79.21;95883.75;1748210;81;21118;-55
2021/01/07 05:16:35;;;;;;;24.12;15.98;;;;;;;0.64;79.29;95887.69;1748650;81;21201;-55
2021/01/07 05:19:06;;;;;;;27.40;16.87;;;;;;;1.06;79.04;95877.80;1750538;81;21113;-55
2021/01/07 05:21:36;;;;;;;22.20;14.58;;;;;;;1.06;79.04;95877.80;1750325;79;21380;-54
2021/01/07 05:24:05;;;;;;;16.65;12.07;;;;;;;1.27;78.52;95876.02;1749129;81;21881;-55
2021/01/07 05:26:33;;;;;;;18.62;12.80;;;;;;;1.46;78.26;95879.83;1750306;81;21108;-53
2021/01/07 05:29:01;;;;;;;18.90;12.80;;;;;;;1.63;77.71;95871.40;1720170;82;22088;-54
2021/01/07 05:31:29;;;;;;;16.32;12.07;;;;;;;1.79;77.24;95877.88;1733742;82;21494;-53
2021/01/07 05:33:57;;;;;;;17.32;12.18;;;;;;;1.91;76.64;95872.63;1736514;81;21114;-53
2021/01/07 05:36:30;;;;;;;19.10;12.98;;;;;;;2.04;76.39;95869.89;1742753;81;21149;-53
2021/01/07 05:39:06;;;;;;;22.20;14.25;;;;;;;2.21;75.79;95866.05;1732664;81;21506;-54
2021/01/07 05:41:33;;;;;;;22.77;14.45;;;;;;;2.36;75.47;95868.30;1742410;81;21603;-54
2021/01/07 05:44:05;;;;;;;36.13;21.40;;;;;;;2.50;74.99;95862.94;1722227;81;21147;-54
2021/01/07 05:46:34;;;;;;;36.65;21.12;;;;;;;2.59;74.63;95862.48;1750005;81;21342;-54
2021/01/07 05:49:01;;;;;;;;;;;;;;;2.68;74.31;95860.76;1749678;81;21175;-55
2021/01/07 05:51:30;;;;;;;33.83;19.12;;;;;;;2.75;74.01;95865.93;1735277;81;20220;-54
2021/01/07 05:53:59;;;;;;;28.92;19.48;;;;;;;2.82;73.78;95867.72;1778295;80;21077;-53
2021/01/07 05:56:27;;;;;;;29.48;20.17;;;;;;;2.88;73.46;95862.75;1759721;80;21298;-49
2021/01/07 05:58:55;;;;;;;31.50;20.00;;;;;;;2.92;73.23;95861.21;1753992;81;21583;-50
2021/01/07 06:01:23;;;;;;;30.92;19.50;;;;;;;2.97;72.86;95859.70;1731464;82;21143;-49
2021/01/07 06:03:53;;;;;;;29.18;18.27;;;;;;;3.01;72.75;95855.23;1729920;81;21237;-49
2021/01/07 06:06:23;;;;;;;27.05;17.90;;;;;;;3.06;72.62;95854.10;1747158;81;22475;-49
2021/01/07 06:08:58;;;;;;;22.07;14.83;;;;;;;3.09;72.59;95851.81;1751329;81;21077;-49
2021/01/07 06:11:25;;;;;;;25.23;16.32;;;;;;;3.13;72.34;95852.05;1754864;81;21573;-50
2021/01/07 06:13:53;;;;;;;28.15;17.52;;;;;;;3.08;72.29;95851.45;1736072;81;21137;-50
2021/01/07 06:16:24;;;;;;;25.60;17.80;;;;;;;3.11;72.39;95855.97;1755036;81;21094;-50
2021/01/07 06:18:53;;;;;;;24.07;16.30;;;;;;;3.15;72.39;95861.75;1753863;81;21639;-49
2021/01/07 06:21:24;;;;;;;27.80;17.50;;;;;;;3.14;72.20;95857.52;1749916;81;21201;-50
2021/01/07 06:23:53;;;;;;;27.07;17.65;;;;;;;3.12;72.28;95861.91;1717341;81;21492;-49
2021/01/07 06:26:26;;;;;;;27.30;18.20;;;;;;;3.11;72.44;95861.55;1703658;81;21133;-49
2021/01/07 06:28:58;;;;;;;28.55;19.75;;;;;;;3.18;72.49;95864.63;1742920;81;21122;-49
2021/01/07 06:31:37;;;;;;;34.55;21.65;;;;;;;3.25;72.54;95863.37;1724755;81;21084;-50
2021/01/07 06:34:04;;;;;;;42.10;24.40;;;;;;;3.28;72.38;95869.16;1724314;81;21140;-49
2021/01/07 06:36:41;;;;;;;38.85;23.12;;;;;;;3.28;72.11;95869.63;1735157;81;22347;-50
2021/01/07 06:39:09;;;;;;;44.83;26.75;;;;;;;3.28;72.19;95864.50;1743156;81;21175;-50
2021/01/07 06:41:38;;;;;;;;;;;;;;;3.34;72.15;95860.34;1752971;81;21068;-50
2021/01/07 06:44:05;;;;;;;47.27;26.33;;;;;;;3.38;71.93;95856.69;1744016;81;20516;-50
2021/01/07 06:46:49;;;;;;;41.33;24.25;;;;;;;3.39;71.85;95866.05;1735006;81;21543;-49
2021/01/07 06:49:22;;;;;;;38.95;23.83;;;;;;;3.39;71.76;95859.63;1741746;81;21480;-51
2021/01/07 06:51:59;;;;;;;34.53;22.35;;;;;;;3.38;71.77;95861.81;1731371;81;21091;-49
2021/01/07 06:54:36;;;;;;;33.73;20.43;;;;;;;3.45;71.92;95862.31;1725407;81;21406;-49
2021/01/07 06:57:07;;;;;;;34.33;21.00;;;;;;;3.49;71.88;95869.77;1732527;81;21107;-49
2021/01/07 06:59:35;;;;;;;31.80;20.17;;;;;;;3.52;71.80;95863.66;1748708;82;21113;-49
2021/01/07 07:02:05;;;;;;;29.63;19.45;;;;;;;3.51;71.59;95869.68;1746645;81;22382;-50
2021/01/07 07:04:33;;;;;;;28.25;17.60;;;;;;;3.53;71.56;95874.27;1757760;81;21163;-49
2021/01/07 07:07:05;;;;;;;27.55;18.32;;;;;;;3.54;71.32;95874.65;1748386;81;21068;-55
2021/01/07 07:09:39;;;;;;;22.93;16.40;;;;;;;3.54;71.01;95876.39;1755997;81;21152;-50
2021/01/07 07:12:08;;;;;;;25.48;16.85;;;;;;;3.48;70.92;95880.10;1759211;81;21528;-50
2021/01/07 07:14:37;;;;;;;25.23;16.57;;;;;;;3.47;70.96;95878.44;1763583;81;21376;-49
2021/01/07 07:17:09;;;;;;;22.50;16.12;;;;;;;3.48;70.88;95878.36;1761351;81;21166;-49
2021/01/07 07:19:37;;;;;;;21.60;14.80;;;;;;;3.53;70.77;95879.39;1735780;81;21085;-51
2021/01/07 07:22:08;;;;;;;22.48;14.78;;;;;;;3.57;70.67;95877.48;1752955;81;21140;-51
2021/01/07 07:24:42;;;;;;;23.38;15.93;;;;;;;3.57;70.67;95879.62;1768986;81;21124;-51
2021/01/07 07:27:11;;;;;;;20.62;14.68;;;;;;;3.58;70.67;95877.41;1770134;81;21344;-49
2021/01/07 07:29:43;;;;;;;23.65;15.63;;;;;;;3.62;70.57;95877.63;1744348;81;21089;-49
2021/01/07 07:32:28;;;;;;;22.37;15.15;;;;;;;3.64;70.35;95882.67;1743501;81;21140;-50
2021/01/07 07:34:56;;;;;;;19.52;13.65;;;;;;;3.65;70.18;95889.02;1741765;82;21153;-49
2021/01/07 07:37:26;;;;;;;18.65;13.38;;;;;;;3.64;70.19;95883.50;1752412;81;21148;-49
2021/01/07 07:40:02;;;;;;;20.25;14.20;;;;;;;3.66;70.11;95879.10;1757221;81;21439;-49
2021/01/07 07:42:30;;;;;;;21.87;15.05;;;;;;;3.66;70.09;95873.97;1770943;81;21080;-51
2021/01/07 07:44:58;;;;;;;23.50;15.77;;;;;;;3.70;70.23;95874.66;1758976;81;21069;-50
2021/01/07 07:47:26;;;;;;;23.42;16.15;;;;;;;3.77;70.18;95881.56;1756816;81;21074;-49
2021/01/07 07:49:56;;;;;;;23.32;16.23;;;;;;;3.82;70.19;95884.23;1752997;81;21203;-50
2021/01/07 07:52:24;;;;;;;24.10;16.30;;;;;;;3.89;70.08;95880.05;1770727;81;21389;-51
2021/01/07 07:55:06;;;;;;;22.43;16.20;;;;;;;3.92;69.89;95881.98;1772529;81;21179;-51
2021/01/07 07:57:47;;;;;;;21.23;14.18;;;;;;;3.94;69.79;95888.32;1765495;81;21151;-50
2021/01/07 08:00:16;;;;;;;20.10;14.13;;;;;;;3.92;69.56;95885.84;1750348;81;21132;-50
2021/01/07 08:02:45;;;;;;;22.70;14.63;;;;;;;3.88;69.57;95879.20;1738872;82;21076;-49
2021/01/07 08:05:28;;;;;;;21.05;14.18;;;;;;;3.85;69.80;95875.55;1716197;81;21203;-50
2021/01/07 08:07:56;;;;;;;22.67;15.60;;;;;;;3.85;69.66;95876.37;1752621;80;21147;-51
2021/01/07 08:10:24;;;;;;;22.87;15.70;;;;;;;3.83;69.68;95867.94;1775308;80;21572;-49
2021/01/07 08:12:52;;;;;;;21.73;15.48;;;;;;;3.69;69.86;95860.98;1769406;80;21275;-49
2021/01/07 08:15:31;;;;;;;21.57;15.70;;;;;;;3.58;70.43;95895.36;1783508;80;21065;-50
2021/01/07 08:18:20;;;;;;;;;;;;;;;3.49;70.86;95871.05;1784350;80;21445;-52
2021/01/07 08:20:51;;;;;;;23.10;15.55;;;;;;;3.41;70.92;95878.78;1753677;80;20238;-51
2021/01/07 08:23:20;;;;;;;24.37;16.30;;;;;;;3.38;71.23;95874.63;1762382;80;21141;-51
2021/01/07 08:25:51;;;;;;;22.45;15.25;;;;;;;3.40;71.12;95876.66;1783492;80;21084;-51
2021/01/07 08:28:43;;;;;;;21.73;14.70;;;;;;;3.48;71.27;95878.81;1770608;80;21675;-50
2021/01/07 08:31:24;;;;;;;23.80;16.50;;;;;;;3.54;71.31;95879.78;1763090;81;21505;-51
2021/01/07 08:33:51;;;;;;;23.42;15.70;;;;;;;3.66;71.12;95876.53;1755085;81;21092;-50
2021/01/07 08:36:20;;;;;;;23.25;15.83;;;;;;;3.79;70.81;95880.55;1740596;81;21065;-50
2021/01/07 08:38:54;;;;;;;24.02;16.87;;;;;;;3.88;70.74;95879.20;1732003;82;21117;-51
2021/01/07 08:41:26;;;;;;;28.25;18.92;;;;;;;3.96;70.62;95877.04;1742583;81;21196;-50
2021/01/07 08:43:56;;;;;;;24.57;16.32;;;;;;;4.04;70.34;95876.63;1757102;81;22393;-51
2021/01/07 08:46:25;;;;;;;27.27;17.35;;;;;;;4.13;70.17;95881.69;1748897;82;21522;-50
2021/01/07 08:49:09;;;;;;;26.97;17.17;;;;;;;4.17;69.99;95889.14;1742342;81;21156;-50
2021/01/07 08:51:41;;;;;;;25.95;17.20;;;;;;;4.21;69.84;95885.50;1727410;81;21093;-49
2021/01/07 08:54:16;;;;;;;22.00;16.32;;;;;;;4.23;69.45;95884.13;1749856;81;21490;-51
2021/01/07 08:56:45;;;;;;;25.65;16.62;;;;;;;4.20;69.24;95875.31;1763858;81;21359;-50
2021/01/07 08:59:33;;;;;;;24.15;16.48;;;;;;;4.12;69.20;95877.48;1741906;81;21171;-50
2021/01/07 09:02:12;;;;;;;21.68;15.95;;;;;;;4.07;69.38;95876.45;1755446;81;21073;-50
2021/01/07 09:04:41;;;;;;;22.87;16.48;;;;;;;4.11;69.69;95868.97;1763857;81;21076;-51
2021/01/07 09:07:18;;;;;;;25.60;18.62;;;;;;;4.19;69.89;95859.52;1737514;81;21073;-50
2021/01/07 09:09:54;;;;;;;32.55;21.73;;;;;;;4.26;69.77;95854.86;1748758;81;21156;-49
2021/01/07 09:12:32;;;;;;;30.52;21.02;;;;;;;4.31;69.45;95858.84;1737061;81;21609;-50
2021/01/07 09:15:10;;;;;;;28.53;20.67;;;;;;;4.36;69.23;95848.31;1757979;81;21505;-52
2021/01/07 09:17:57;;;;;;;33.33;20.80;;;;;;;4.42;69.08;95854.36;1762722;81;21168;-49
2021/01/07 09:20:32;;;;;;;30.20;20.08;;;;;;;4.51;69.16;95853.02;1761955;81;21116;-50
2021/01/07 09:23:08;;;;;;;33.02;22.13;;;;;;;4.64;68.80;95847.96;1733900;81;22279;-50
2021/01/07 09:25:36;;;;;;;30.02;20.60;;;;;;;4.70;68.63;95851.46;1752750;81;21133;-51
2021/01/07 09:28:04;;;;;;;32.37;20.60;;;;;;;4.79;68.47;95847.08;1763511;81;21117;-50
2021/01/07 09:30:32;;;;;;;32.50;21.30;;;;;;;5.01;68.10;95849.64;1746402;81;21614;-51
2021/01/07 09:33:00;;;;;;;31.48;20.32;;;;;;;5.25;67.11;95846.05;1762675;81;21496;-51
2021/01/07 09:35:28;;;;;;;32.17;20.70;;;;;;;5.31;66.89;95857.23;1758636;81;21358;-52
2021/01/07 09:37:57;;;;;;;39.23;26.00;;;;;;;5.39;66.88;95855.48;1736782;81;21177;-52
2021/01/07 09:40:25;;;;;;;35.43;24.25;;;;;;;5.73;66.45;95851.64;1750880;81;21212;-52
2021/01/07 09:42:52;;;;;;;38.40;25.12;;;;;;;6.05;65.77;95853.50;1758801;81;21152;-53
2021/01/07 09:45:20;;;;;;;38.67;27.02;;;;;;;6.85;64.85;95855.14;1725141;81;21556;-50
2021/01/07 09:47:48;;;;;;;37.13;26.65;;;;;;;8.04;63.20;95851.62;1747575;81;21512;-52
2021/01/07 09:50:19;;;;;;;39.97;28.27;;;;;;;8.95;60.88;95846.72;1762090;81;21564;-52
2021/01/07 09:52:45;;;;;;;37.08;25.70;;;;;;;9.24;58.97;95839.28;1751782;81;21141;-53
2021/01/07 09:55:14;;;;;;;38.35;25.70;;;;;;;9.18;58.17;95832.83;1739405;81;26583;-52
2021/01/07 09:57:47;;;;;;;34.65;23.90;;;;;;;9.39;57.88;95828.21;1760015;81;21646;-52
2021/01/07 10:00:13;;;;;;;34.08;24.18;;;;;;;10.00;56.82;95825.15;1758787;81;21851;-52
2021/01/07 10:02:41;;;;;;;32.67;24.52;;;;;;;11.01;54.63;95822.97;1753838;81;21284;-53
2021/01/07 10:05:10;;;;;;;32.00;22.93;;;;;;;12.04;51.76;95804.16;1761139;80;21085;-54
2021/01/07 10:07:38;;;;;;;33.67;24.57;;;;;;;13.03;49.85;95813.80;1749740;80;21596;-54
2021/01/07 10:10:07;;;;;;;32.45;25.10;;;;;;;13.60;46.89;95796.78;1753895;80;21580;-55
2021/01/07 10:12:34;;;;;;;;;;;;;;;13.51;46.18;95796.83;1759458;80;21379;-55
2021/01/07 10:15:09;;;;;;;26.15;20.62;;;;;;;13.18;46.74;95790.72;1753944;80;20241;-57
2021/01/07 10:17:37;;;;;;;25.82;19.95;;;;;;;12.92;47.41;95784.03;1755765;81;21090;-56
2021/01/07 10:20:08;;;;;;;24.90;20.08;;;;;;;12.78;47.78;95776.21;1755800;81;22079;-54
2021/01/07 10:22:37;;;;;;;22.37;18.75;;;;;;;12.98;47.91;95780.05;1752127;80;21568;-53
2021/01/07 10:25:07;;;;;;;22.42;17.12;;;;;;;13.37;47.15;95783.80;1754033;81;21212;-55
2021/01/07 10:27:35;;;;;;;20.65;15.98;;;;;;;13.54;46.50;95780.91;1784419;80;21200;-55
2021/01/07 10:30:04;;;;;;;20.03;15.73;;;;;;;13.39;46.75;95783.19;1778987;80;21141;-54
2021/01/07 10:32:32;;;;;;;20.10;17.00;;;;;;;13.20;46.65;95779.66;1771519;80;21187;-55
2021/01/07 10:35:01;;;;;;;20.23;16.05;;;;;;;12.95;46.92;95779.03;1724919;81;21191;-55
2021/01/07 10:37:29;;;;;;;19.32;15.70;;;;;;;12.38;47.38;95784.23;1745965;81;21531;-53
2021/01/07 10:39:57;;;;;;;20.57;16.62;;;;;;;11.90;48.70;95774.98;1781602;80;21074;-54
2021/01/07 10:42:25;;;;;;;21.30;17.40;;;;;;;12.14;49.65;95769.89;1714476;81;21173;-53
2021/01/07 10:44:53;;;;;;;21.23;16.42;;;;;;;12.33;49.24;95772.94;1750808;81;26860;-54
2021/01/07 10:47:21;;;;;;;20.13;15.97;;;;;;;12.24;49.05;95770.70;1750390;81;21172;-54
2021/01/07 10:49:49;;;;;;;19.75;16.25;;;;;;;12.04;49.27;95761.25;1750463;80;21395;-54
2021/01/07 10:52:50;;;;;;;20.17;16.05;;;;;;;11.75;49.68;95763.36;1717731;81;21461;-54
2021/01/07 10:55:24;;;;;;;19.37;15.83;;;;;;;11.59;50.19;95763.42;1739754;81;21061;-54
2021/01/07 10:58:15;;;;;;;20.17;15.15;;;;;;;12.03;50.43;95766.13;1778638;80;21173;-54
2021/01/07 11:01:23;;;;;;;20.15;15.90;;;;;;;12.27;49.48;95769.58;1778075;80;21129;-53
2021/01/07 11:04:13;;;;;;;19.45;15.78;;;;;;;12.33;49.54;95771.64;1751880;81;21897;-54
2021/01/07 11:07:00;;;;;;;18.25;15.63;;;;;;;12.19;50.00;95765.55;1748477;80;21177;-53
2021/01/07 11:09:33;;;;;;;20.90;15.60;;;;;;;12.33;49.79;95765.13;1754933;81;21138;-56
2021/01/07 11:12:18;;;;;;;18.60;13.98;;;;;;;11.93;49.89;95770.84;1741628;81;21757;-54
2021/01/07 11:15:03;;;;;;;21.25;17.02;;;;;;;11.50;50.93;95765.52;1769322;80;21556;-53
2021/01/07 11:17:35;;;;;;;21.33;16.45;;;;;;;11.22;51.34;95767.91;1774383;80;21390;-53
2021/01/07 11:20:07;;;;;;;22.52;17.05;;;;;;;10.52;53.02;95761.73;1744532;81;21176;-54
2021/01/07 11:22:35;;;;;;;19.65;15.45;;;;;;;10.03;54.87;95770.93;1769889;80;21168;-54
2021/01/07 11:25:07;;;;;;;20.52;15.65;;;;;;;9.94;55.61;95775.10;1776094;80;21591;-54
2021/01/07 11:27:36;;;;;;;19.80;14.87;;;;;;;9.94;55.52;95763.44;1775861;80;21557;-55
2021/01/07 11:30:07;;;;;;;19.35;14.85;;;;;;;9.80;56.13;95759.84;1770694;80;21368;-55
2021/01/07 11:32:37;;;;;;;19.62;15.05;;;;;;;9.65;56.58;95773.07;1779677;80;21132;-53
2021/01/07 11:35:09;;;;;;;19.80;15.45;;;;;;;9.53;56.58;95773.58;1788279;80;21118;-55
2021/01/07 11:37:53;;;;;;;19.27;13.93;;;;;;;9.32;56.82;95775.28;1774036;80;21104;-54
2021/01/07 11:40:53;;;;;;;18.02;14.68;;;;;;;9.15;57.78;95774.02;1781343;80;21172;-54
2021/01/07 11:43:54;;;;;;;19.27;13.75;;;;;;;9.08;57.96;95773.67;1769234;81;21197;-52